Time;durP1;ratioP1;P1;durP2;ratioP2;P2;SDS_P1;SDS_P2;PMS_P1;PMS_P2;Temp;Humidity;BMP_temperature;BMP_pressure;BME280_temperature;BME280_humidity;BME280_pressure;Samples;Min_cycle;Max_cycle;Signal;HPM_P1;HPM_P2
2023/12/04 00:02:06;;;;;;;6.43;5.75;;;;;;;;;;5042940;28;20144;-64
2023/12/04 00:04:34;;;;;;;7.22;5.93;;;;;;;;;;5046909;28;20047;-63
2023/12/04 00:07:03;;;;;;;6.63;6.13;;;;;;;;;;5046773;28;20041;-67
2023/12/04 00:09:31;;;;;;;7.70;6.78;;;;;;;;;;5048453;28;20046;-68
2023/12/04 00:12:01;;;;;;;6.15;5.55;;;;;;;;;;5045313;28;20053;-65
2023/12/04 00:14:29;;;;;;;6.80;6.22;;;;;;;;;;5041647;28;20058;-66
2023/12/04 00:16:59;;;;;;;6.25;5.65;;;;;;;;;;5049536;28;20099;-67
2023/12/04 00:19:27;;;;;;;6.22;5.75;;;;;;;;;;5044499;28;20081;-64
2023/12/04 00:21:56;;;;;;;5.47;5.07;;;;;;;;;;5049570;28;20106;-70
2023/12/04 00:24:24;;;;;;;5.78;5.38;;;;;;;;;;5051228;28;20041;-67
2023/12/04 00:26:52;;;;;;;6.20;5.70;;;;;;;;;;5039750;28;20049;-66
2023/12/04 00:29:21;;;;;;;6.25;5.72;;;;;;;;;;5046520;28;20072;-65
2023/12/04 00:31:49;;;;;;;6.13;5.63;;;;;;;;;;5050502;28;20053;-66
2023/12/04 00:34:19;;;;;;;6.18;5.65;;;;;;;;;;5043853;28;20164;-64
2023/12/04 00:36:47;;;;;;;6.30;5.75;;;;;;;;;;5041644;28;20502;-64
2023/12/04 00:39:16;;;;;;;6.38;5.75;;;;;;;;;;5038335;28;20128;-66
2023/12/04 00:41:44;;;;;;;5.28;4.93;;;;;;;;;;5050027;28;20049;-65
2023/12/04 00:44:13;;;;;;;7.63;6.80;;;;;;;;;;5047275;28;20045;-65
2023/12/04 00:46:41;;;;;;;6.05;5.53;;;;;;;;;;5039986;28;20048;-65
2023/12/04 00:49:09;;;;;;;5.90;5.53;;;;;;;;;;5047279;28;20041;-66
2023/12/04 00:51:42;;;;;;;5.82;5.43;;;;;;;;;;5050785;28;20098;-70
2023/12/04 00:54:11;;;;;;;6.35;5.78;;;;;;;;;;5044427;28;20067;-64
2023/12/04 00:56:40;;;;;;;6.13;5.55;;;;;;;;;;5048033;28;20102;-67
2023/12/04 00:59:09;;;;;;;6.75;6.22;;;;;;;;;;5040121;28;20052;-69
2023/12/04 01:01:38;;;;;;;6.07;5.57;;;;;;;;;;5046443;28;20052;-64
2023/12/04 01:04:06;;;;;;;5.90;5.50;;;;;;;;;;5048769;28;20087;-67
2023/12/04 01:06:34;;;;;;;6.05;5.65;;;;;;;;;;5042651;28;20056;-65
2023/12/04 01:09:04;;;;;;;6.43;5.93;;;;;;;;;;5039452;28;20133;-63
2023/12/04 01:11:33;;;;;;;6.68;6.07;;;;;;;;;;5047280;28;20053;-66
2023/12/04 01:14:02;;;;;;;6.75;6.13;;;;;;;;;;5047350;28;20041;-64
2023/12/04 01:16:30;;;;;;;6.82;6.28;;;;;;;;;;5046053;28;20099;-64
2023/12/04 01:19:00;;;;;;;6.60;6.10;;;;;;;;;;5047259;28;20049;-64
2023/12/04 01:21:29;;;;;;;5.93;5.43;;;;;;;;;;5044285;28;20041;-67
2023/12/04 01:23:59;;;;;;;6.55;6.03;;;;;;;;;;5037713;28;20161;-67
2023/12/04 01:26:29;;;;;;;5.53;5.13;;;;;;;;;;5046824;28;20533;-63
2023/12/04 01:28:58;;;;;;;5.72;5.32;;;;;;;;;;5041173;28;20761;-65
2023/12/04 01:31:26;;;;;;;6.03;5.63;;;;;;;;;;5040144;28;20073;-64
2023/12/04 01:33:55;;;;;;;5.47;4.97;;;;;;;;;;5039433;28;21023;-65
2023/12/04 01:36:23;;;;;;;6.28;5.80;;;;;;;;;;5048714;28;20041;-63
2023/12/04 01:38:52;;;;;;;6.43;5.93;;;;;;;;;;5039768;28;20494;-66
2023/12/04 01:41:20;;;;;;;6.03;5.63;;;;;;;;;;5045059;28;20048;-64
2023/12/04 01:43:50;;;;;;;6.28;5.88;;;;;;;;;;5035756;28;20507;-65
2023/12/04 01:46:19;;;;;;;5.85;5.35;;;;;;;;;;5043775;28;20152;-63
2023/12/04 01:48:48;;;;;;;6.10;5.60;;;;;;;;;;5033536;28;20095;-64
2023/12/04 01:51:18;;;;;;;6.90;6.40;;;;;;;;;;5040821;28;20676;-64
2023/12/04 01:53:47;;;;;;;6.00;5.60;;;;;;;;;;5048007;28;20060;-65
2023/12/04 01:56:16;;;;;;;7.32;6.63;;;;;;;;;;5030440;28;20037;-63
2023/12/04 01:58:45;;;;;;;6.55;5.93;;;;;;;;;;5041721;28;20092;-67
2023/12/04 02:01:14;;;;;;;5.72;5.32;;;;;;;;;;5046044;28;20390;-64
2023/12/04 02:03:43;;;;;;;6.53;5.93;;;;;;;;;;5045520;28;20042;-65
2023/12/04 02:06:13;;;;;;;6.70;6.18;;;;;;;;;;5037835;28;20159;-65
2023/12/04 02:08:42;;;;;;;6.78;6.25;;;;;;;;;;5041960;28;20563;-63
2023/12/04 02:11:10;;;;;;;7.60;6.97;;;;;;;;;;5040379;28;20485;-66
2023/12/04 02:13:38;;;;;;;6.75;5.97;;;;;;;;;;5041941;28;20478;-66
2023/12/04 02:16:09;;;;;;;6.80;6.30;;;;;;;;;;5039791;28;20048;-63
2023/12/04 02:18:39;;;;;;;6.38;5.88;;;;;;;;;;5043565;28;20053;-63
2023/12/04 02:21:08;;;;;;;7.22;6.50;;;;;;;;;;5034834;28;20399;-65
2023/12/04 02:23:36;;;;;;;7.82;7.13;;;;;;;;;;5047094;28;20057;-65
2023/12/04 02:26:10;;;;;;;6.72;6.13;;;;;;;;;;5045718;28;20114;-65
2023/12/04 02:28:39;;;;;;;7.45;6.88;;;;;;;;;;5041636;28;20045;-66
2023/12/04 02:31:09;;;;;;;6.72;6.22;;;;;;;;;;5041331;28;20037;-63
2023/12/04 02:33:37;;;;;;;6.65;6.15;;;;;;;;;;5034266;28;20203;-64
2023/12/04 02:36:07;;;;;;;6.72;6.22;;;;;;;;;;5048624;28;20056;-64
2023/12/04 02:38:35;;;;;;;6.10;5.70;;;;;;;;;;5040502;28;20095;-68
2023/12/04 02:41:04;;;;;;;6.32;5.82;;;;;;;;;;5032009;28;20049;-63
2023/12/04 02:43:34;;;;;;;6.63;6.03;;;;;;;;;;5032692;28;20080;-65
2023/12/04 02:46:02;;;;;;;7.50;6.65;;;;;;;;;;5037699;28;20081;-63
2023/12/04 02:48:31;;;;;;;6.97;6.35;;;;;;;;;;5034537;28;20049;-64
2023/12/04 02:50:59;;;;;;;7.63;6.90;;;;;;;;;;5047853;28;20084;-64
2023/12/04 02:53:28;;;;;;;6.95;6.35;;;;;;;;;;5037165;28;20045;-64
2023/12/04 02:55:56;;;;;;;7.47;6.80;;;;;;;;;;5038930;28;20053;-65
2023/12/04 02:58:24;;;;;;;6.97;6.38;;;;;;;;;;5037001;28;20502;-65
2023/12/04 03:00:54;;;;;;;6.88;6.28;;;;;;;;;;5040875;28;20052;-65
2023/12/04 03:03:23;;;;;;;6.32;5.90;;;;;;;;;;5042596;28;20210;-66
2023/12/04 03:05:51;;;;;;;6.40;5.80;;;;;;;;;;5043640;28;20052;-66
2023/12/04 03:08:19;;;;;;;6.50;6.07;;;;;;;;;;5038324;28;20445;-63
2023/12/04 03:10:48;;;;;;;6.85;6.25;;;;;;;;;;5042544;28;20049;-63
2023/12/04 03:13:16;;;;;;;6.32;5.80;;;;;;;;;;5034549;28;20060;-63
2023/12/04 03:15:44;;;;;;;6.40;6.00;;;;;;;;;;5043167;28;20493;-65
2023/12/04 03:18:14;;;;;;;6.50;5.95;;;;;;;;;;5046840;28;20056;-65
2023/12/04 03:20:43;;;;;;;5.93;5.43;;;;;;;;;;5034364;28;20057;-62
2023/12/04 03:23:11;;;;;;;6.40;5.80;;;;;;;;;;5045078;28;20491;-66
2023/12/04 03:25:39;;;;;;;7.57;6.55;;;;;;;;;;5040324;28;20127;-67
2023/12/04 03:28:08;;;;;;;7.68;6.97;;;;;;;;;;5045128;28;20533;-63
2023/12/04 03:30:36;;;;;;;7.57;6.88;;;;;;;;;;5036827;28;20107;-63
2023/12/04 03:33:04;;;;;;;6.85;6.25;;;;;;;;;;5046697;28;20536;-62
2023/12/04 03:35:34;;;;;;;7.00;6.35;;;;;;;;;;5045897;28;20076;-64
2023/12/04 03:38:03;;;;;;;7.13;6.43;;;;;;;;;;5031954;28;20502;-63
2023/12/04 03:40:31;;;;;;;7.00;6.35;;;;;;;;;;5041129;28;20348;-63
2023/12/04 03:43:00;;;;;;;6.63;6.13;;;;;;;;;;5042199;28;20137;-64
2023/12/04 03:45:28;;;;;;;7.15;6.55;;;;;;;;;;5037311;28;20079;-63
2023/12/04 03:47:57;;;;;;;6.70;6.28;;;;;;;;;;5040846;28;20054;-63
2023/12/04 03:50:25;;;;;;;6.43;6.03;;;;;;;;;;5037173;28;20110;-62
2023/12/04 03:52:55;;;;;;;7.15;6.53;;;;;;;;;;5044414;28;20496;-62
2023/12/04 03:55:24;;;;;;;6.68;6.07;;;;;;;;;;5045011;28;20118;-65
2023/12/04 03:57:52;;;;;;;6.50;6.03;;;;;;;;;;5045387;28;20046;-61
2023/12/04 04:00:21;;;;;;;6.03;5.63;;;;;;;;;;5040386;28;20045;-63
2023/12/04 04:02:49;;;;;;;6.88;6.20;;;;;;;;;;5034808;28;20433;-65
2023/12/04 04:05:18;;;;;;;5.93;5.53;;;;;;;;;;5045554;28;20041;-67
2023/12/04 04:07:46;;;;;;;6.30;5.80;;;;;;;;;;5040655;28;20053;-65
2023/12/04 04:10:16;;;;;;;5.72;5.30;;;;;;;;;;5044479;28;20049;-65
2023/12/04 04:12:44;;;;;;;6.28;5.78;;;;;;;;;;5038866;28;20045;-66
2023/12/04 04:15:13;;;;;;;6.65;6.15;;;;;;;;;;5040304;28;20053;-65
2023/12/04 04:17:41;;;;;;;7.22;6.70;;;;;;;;;;5041743;28;20498;-64
2023/12/04 04:20:12;;;;;;;7.15;6.63;;;;;;;;;;5043806;28;20049;-65
2023/12/04 04:22:40;;;;;;;5.65;5.32;;;;;;;;;;5046478;28;20045;-65
2023/12/04 04:25:09;;;;;;;6.55;6.05;;;;;;;;;;5040584;28;20041;-64
2023/12/04 04:27:39;;;;;;;6.30;5.80;;;;;;;;;;5040099;28;20049;-64
2023/12/04 04:30:08;;;;;;;6.53;5.93;;;;;;;;;;5042686;28;20057;-62
2023/12/04 04:32:36;;;;;;;6.32;5.90;;;;;;;;;;5039798;28;20060;-69
2023/12/04 04:35:05;;;;;;;7.22;6.70;;;;;;;;;;5046507;28;20075;-63
2023/12/04 04:37:34;;;;;;;5.65;5.25;;;;;;;;;;5041186;28;20045;-71
2023/12/04 04:40:03;;;;;;;6.40;5.90;;;;;;;;;;5045986;28;20099;-64
2023/12/04 04:42:31;;;;;;;6.20;5.68;;;;;;;;;;5046967;28;20045;-68
2023/12/04 04:45:01;;;;;;;5.80;5.47;;;;;;;;;;5048554;28;20521;-63
2023/12/04 04:47:29;;;;;;;5.82;5.32;;;;;;;;;;5041191;28;20320;-63
2023/12/04 04:49:58;;;;;;;6.30;5.90;;;;;;;;;;5050031;28;20057;-65
2023/12/04 04:52:26;;;;;;;5.78;5.38;;;;;;;;;;5045700;28;20046;-66
2023/12/04 04:55:00;;;;;;;6.03;5.63;;;;;;;;;;5046488;28;20282;-66
2023/12/04 04:57:28;;;;;;;6.13;5.72;;;;;;;;;;5037203;28;20843;-63
2023/12/04 04:59:56;;;;;;;5.85;5.45;;;;;;;;;;5046306;28;20151;-63
2023/12/04 05:02:26;;;;;;;7.05;6.45;;;;;;;;;;5042571;28;20053;-66
2023/12/04 05:04:55;;;;;;;5.50;5.13;;;;;;;;;;5046962;28;20406;-64
2023/12/04 05:07:23;;;;;;;6.63;6.13;;;;;;;;;;5046130;28;20055;-68
2023/12/04 05:09:51;;;;;;;6.50;6.10;;;;;;;;;;5039854;28;20045;-64
2023/12/04 05:12:20;;;;;;;5.80;5.40;;;;;;;;;;5048214;28;20254;-63
2023/12/04 05:14:48;;;;;;;6.55;5.90;;;;;;;;;;5045581;28;20080;-64
2023/12/04 05:17:16;;;;;;;6.00;5.50;;;;;;;;;;5037735;28;20104;-65
2023/12/04 05:19:46;;;;;;;6.28;5.93;;;;;;;;;;5040574;28;20569;-66
2023/12/04 05:22:17;;;;;;;5.68;5.28;;;;;;;;;;5048669;28;20120;-66
2023/12/04 05:24:45;;;;;;;6.20;5.78;;;;;;;;;;5040829;28;20064;-64
2023/12/04 05:27:13;;;;;;;5.88;5.38;;;;;;;;;;5048215;28;20040;-64
2023/12/04 05:29:42;;;;;;;5.28;4.95;;;;;;;;;;5048947;28;20084;-65
2023/12/04 05:32:10;;;;;;;6.72;6.22;;;;;;;;;;5044505;28;20502;-66
2023/12/04 05:34:38;;;;;;;5.50;5.20;;;;;;;;;;5041401;28;20400;-63
2023/12/04 05:37:08;;;;;;;5.63;5.22;;;;;;;;;;5034248;28;20045;-64
2023/12/04 05:39:37;;;;;;;5.57;5.15;;;;;;;;;;5041147;28;20038;-61
2023/12/04 05:42:05;;;;;;;6.72;6.07;;;;;;;;;;5047924;28;20490;-65
2023/12/04 05:44:34;;;;;;;7.07;6.38;;;;;;;;;;5044566;28;20057;-63
2023/12/04 05:47:03;;;;;;;5.13;4.82;;;;;;;;;;5043466;28;20049;-64
2023/12/04 05:49:33;;;;;;;4.95;4.65;;;;;;;;;;5044923;28;20461;-63
2023/12/04 05:52:01;;;;;;;7.57;5.30;;;;;;;;;;5041402;28;20152;-62
2023/12/04 05:54:31;;;;;;;5.65;5.32;;;;;;;;;;5040825;28;20048;-69
2023/12/04 05:56:59;;;;;;;6.13;5.70;;;;;;;;;;5040723;28;20049;-62
2023/12/04 05:59:28;;;;;;;5.60;5.20;;;;;;;;;;5044628;28;20233;-62
2023/12/04 06:01:56;;;;;;;5.65;5.25;;;;;;;;;;5042522;28;20623;-62
2023/12/04 06:04:25;;;;;;;6.90;6.40;;;;;;;;;;5044092;28;20048;-62
2023/12/04 06:06:53;;;;;;;5.18;4.88;;;;;;;;;;5047433;28;20057;-65
2023/12/04 06:09:21;;;;;;;7.13;6.53;;;;;;;;;;5046902;28;20051;-65
2023/12/04 06:11:51;;;;;;;5.50;5.20;;;;;;;;;;5047102;28;20052;-64
2023/12/04 06:14:20;;;;;;;5.72;5.32;;;;;;;;;;5042013;28;20341;-63
2023/12/04 06:16:48;;;;;;;5.05;4.75;;;;;;;;;;5042018;28;20053;-62
2023/12/04 06:19:16;;;;;;;5.53;5.10;;;;;;;;;;5045255;28;20049;-64
2023/12/04 06:21:45;;;;;;;6.07;5.60;;;;;;;;;;5045418;28;20508;-69
2023/12/04 06:24:14;;;;;;;5.75;5.45;;;;;;;;;;5045272;28;20049;-63
2023/12/04 06:26:43;;;;;;;4.82;4.53;;;;;;;;;;5039588;28;20109;-62
2023/12/04 06:29:13;;;;;;;6.28;5.88;;;;;;;;;;5034243;28;20054;-62
2023/12/04 06:31:42;;;;;;;5.82;5.40;;;;;;;;;;5039018;28;20053;-65
2023/12/04 06:34:11;;;;;;;5.57;5.28;;;;;;;;;;5045192;28;20053;-70
2023/12/04 06:36:40;;;;;;;5.18;4.82;;;;;;;;;;5044901;28;20056;-62
2023/12/04 06:39:11;;;;;;;5.30;5.00;;;;;;;;;;5042425;28;20048;-62
2023/12/04 06:41:40;;;;;;;5.63;5.32;;;;;;;;;;5048612;28;20049;-66
2023/12/04 06:44:09;;;;;;;6.03;5.63;;;;;;;;;;5043896;28;20357;-63
2023/12/04 06:46:39;;;;;;;5.82;5.53;;;;;;;;;;5047925;28;20080;-63
2023/12/04 06:49:08;;;;;;;5.45;5.15;;;;;;;;;;5046954;28;20487;-64
2023/12/04 06:51:36;;;;;;;5.90;5.40;;;;;;;;;;5041652;28;20080;-67
2023/12/04 06:54:05;;;;;;;6.82;6.25;;;;;;;;;;5044283;28;21969;-71
2023/12/04 06:56:33;;;;;;;6.68;6.18;;;;;;;;;;5043232;28;20053;-65
2023/12/04 06:59:02;;;;;;;6.43;6.03;;;;;;;;;;5045505;28;20045;-67
2023/12/04 07:01:30;;;;;;;5.68;5.18;;;;;;;;;;5044465;28;20106;-64
2023/12/04 07:04:00;;;;;;;5.80;5.40;;;;;;;;;;5048504;28;20060;-63
2023/12/04 07:06:29;;;;;;;5.32;4.90;;;;;;;;;;5046917;28;20076;-65
2023/12/04 07:08:57;;;;;;;4.97;4.57;;;;;;;;;;5036424;28;20053;-64
2023/12/04 07:11:26;;;;;;;5.63;5.30;;;;;;;;;;5048285;28;20055;-65
2023/12/04 07:13:55;;;;;;;6.15;5.65;;;;;;;;;;5048035;28;20537;-63
2023/12/04 07:16:23;;;;;;;6.25;5.75;;;;;;;;;;5045904;28;20072;-63
2023/12/04 07:18:52;;;;;;;4.82;4.53;;;;;;;;;;5047496;28;20063;-64
2023/12/04 07:21:22;;;;;;;5.00;4.70;;;;;;;;;;5045592;28;20045;-63
2023/12/04 07:23:50;;;;;;;5.35;5.05;;;;;;;;;;5047829;28;20570;-64
2023/12/04 07:26:19;;;;;;;5.85;5.45;;;;;;;;;;5036043;28;20075;-64
2023/12/04 07:28:47;;;;;;;5.63;5.32;;;;;;;;;;5044718;28;20061;-63
2023/12/04 07:31:16;;;;;;;5.93;5.50;;;;;;;;;;5047973;28;20045;-64
2023/12/04 07:33:45;;;;;;;5.47;5.10;;;;;;;;;;5044604;28;20059;-63
2023/12/04 07:36:13;;;;;;;6.20;5.60;;;;;;;;;;5045234;28;20137;-65
2023/12/04 07:38:43;;;;;;;5.40;5.07;;;;;;;;;;5047352;28;20150;-63
2023/12/04 07:41:11;;;;;;;5.68;5.28;;;;;;;;;;5047676;28;20457;-63
2023/12/04 07:43:40;;;;;;;6.28;5.88;;;;;;;;;;5048068;28;20095;-63
2023/12/04 07:46:11;;;;;;;5.00;4.70;;;;;;;;;;5048050;28;20048;-65
2023/12/04 07:48:39;;;;;;;6.20;5.70;;;;;;;;;;5047595;28;20073;-64
2023/12/04 07:51:09;;;;;;;6.18;5.57;;;;;;;;;;5043348;28;20093;-65
2023/12/04 07:53:37;;;;;;;5.30;4.90;;;;;;;;;;5046997;28;20455;-65
2023/12/04 07:56:08;;;;;;;11.82;6.53;;;;;;;;;;5045611;28;20475;-63
2023/12/04 07:58:36;;;;;;;6.05;5.65;;;;;;;;;;5041207;28;20053;-63
2023/12/04 08:01:05;;;;;;;7.40;6.72;;;;;;;;;;5044915;28;20049;-64
2023/12/04 08:03:34;;;;;;;5.60;5.20;;;;;;;;;;5045646;28;20076;-67
2023/12/04 08:06:03;;;;;;;6.00;5.63;;;;;;;;;;5044923;28;20307;-63
2023/12/04 08:08:32;;;;;;;5.32;5.03;;;;;;;;;;5044687;28;20414;-66
2023/12/04 08:11:00;;;;;;;5.85;5.43;;;;;;;;;;5049719;28;20114;-69
2023/12/04 08:13:30;;;;;;;6.05;5.55;;;;;;;;;;5050952;28;20168;-66
2023/12/04 08:16:00;;;;;;;6.25;5.85;;;;;;;;;;5046150;28;20049;-65
2023/12/04 08:18:29;;;;;;;5.28;4.97;;;;;;;;;;5047180;28;20053;-68
2023/12/04 08:20:57;;;;;;;5.32;4.90;;;;;;;;;;5050431;28;20052;-64
2023/12/04 08:23:26;;;;;;;5.60;5.10;;;;;;;;;;5046377;28;20060;-63
2023/12/04 08:25:55;;;;;;;5.75;5.25;;;;;;;;;;5050102;28;20045;-65
2023/12/04 08:28:23;;;;;;;5.65;5.15;;;;;;;;;;5048402;28;20098;-64
2023/12/04 08:30:53;;;;;;;6.25;5.75;;;;;;;;;;5048259;28;20069;-65
2023/12/04 08:33:22;;;;;;;5.30;5.00;;;;;;;;;;5047748;28;20049;-64
2023/12/04 08:35:50;;;;;;;5.20;4.80;;;;;;;;;;5048943;28;20052;-64
2023/12/04 08:38:19;;;;;;;6.05;5.63;;;;;;;;;;5047733;28;20057;-66
2023/12/04 08:40:48;;;;;;;5.53;5.13;;;;;;;;;;5048141;28;20118;-65
2023/12/04 08:43:16;;;;;;;5.80;5.40;;;;;;;;;;5039883;28;20538;-63
2023/12/04 08:45:45;;;;;;;5.50;5.00;;;;;;;;;;5048471;28;20064;-64
2023/12/04 08:48:15;;;;;;;5.78;5.38;;;;;;;;;;5048445;28;20045;-63
2023/12/04 08:50:43;;;;;;;6.35;5.85;;;;;;;;;;5040158;28;20053;-65
2023/12/04 08:53:12;;;;;;;5.45;5.05;;;;;;;;;;5047149;28;20049;-65
2023/12/04 08:55:40;;;;;;;5.45;5.07;;;;;;;;;;5047696;28;20056;-65
2023/12/04 08:58:10;;;;;;;6.15;5.75;;;;;;;;;;5043101;28;20467;-65
2023/12/04 09:00:42;;;;;;;5.47;5.07;;;;;;;;;;5041896;28;20072;-67
2023/12/04 09:03:12;;;;;;;5.45;5.05;;;;;;;;;;5049157;28;20045;-68
2023/12/04 09:05:55;;;;;;;6.25;5.70;;;;;;;;;;5048301;28;20061;-67
2023/12/04 09:08:25;;;;;;;6.38;5.97;;;;;;;;;;5047779;28;20045;-65
2023/12/04 09:11:05;;;;;;;6.45;5.95;;;;;;;;;;5049198;28;20128;-64
2023/12/04 09:13:37;;;;;;;5.53;5.22;;;;;;;;;;5048879;28;20076;-64
2023/12/04 09:16:06;;;;;;;5.65;5.07;;;;;;;;;;5044661;28;20105;-68
2023/12/04 09:18:34;;;;;;;6.05;5.55;;;;;;;;;;5035782;28;20504;-64
2023/12/04 09:21:04;;;;;;;9.52;5.88;;;;;;;;;;5047246;28;20072;-65
2023/12/04 09:23:33;;;;;;;6.20;5.80;;;;;;;;;;5048932;28;20075;-66
2023/12/04 09:26:01;;;;;;;6.57;6.07;;;;;;;;;;5036636;28;20474;-65
2023/12/04 09:28:30;;;;;;;7.03;6.40;;;;;;;;;;5039786;28;20107;-65
2023/12/04 09:30:58;;;;;;;6.55;5.95;;;;;;;;;;5041146;28;20044;-65
2023/12/04 09:33:27;;;;;;;5.97;5.47;;;;;;;;;;5038416;28;20048;-64
2023/12/04 09:35:55;;;;;;;5.40;5.00;;;;;;;;;;5048997;28;20501;-65
2023/12/04 09:38:25;;;;;;;6.57;5.88;;;;;;;;;;5048098;28;20132;-65
2023/12/04 09:40:54;;;;;;;6.40;5.80;;;;;;;;;;5048475;28;20041;-63
2023/12/04 09:43:22;;;;;;;5.95;5.45;;;;;;;;;;5047565;28;20081;-65
2023/12/04 09:45:51;;;;;;;6.20;5.65;;;;;;;;;;5048070;28;20079;-68
2023/12/04 09:48:19;;;;;;;6.00;5.50;;;;;;;;;;5042539;28;20077;-67
2023/12/04 09:50:48;;;;;;;5.68;5.18;;;;;;;;;;5044312;28;20049;-68
2023/12/04 09:53:17;;;;;;;6.25;5.75;;;;;;;;;;5043483;28;20072;-65
2023/12/04 09:55:49;;;;;;;5.50;5.10;;;;;;;;;;5044865;28;20106;-65
2023/12/04 09:58:21;;;;;;;5.53;5.13;;;;;;;;;;5040616;28;20106;-71
2023/12/04 10:00:49;;;;;;;6.13;5.63;;;;;;;;;;5043216;28;20049;-65
2023/12/04 10:03:18;;;;;;;6.15;5.75;;;;;;;;;;5042768;28;20417;-69
2023/12/04 10:05:46;;;;;;;6.35;5.80;;;;;;;;;;5046494;28;20144;-65
2023/12/04 10:08:15;;;;;;;7.60;6.80;;;;;;;;;;5042398;28;20044;-65
2023/12/04 10:10:43;;;;;;;7.05;6.38;;;;;;;;;;5044001;28;20057;-65
2023/12/04 10:13:14;;;;;;;5.97;5.35;;;;;;;;;;5047612;28;20059;-65
2023/12/04 10:16:03;;;;;;;6.75;6.15;;;;;;;;;;5044131;28;20049;-65
2023/12/04 10:18:32;;;;;;;7.32;6.70;;;;;;;;;;5046574;28;20049;-66
2023/12/04 10:21:02;;;;;;;8.20;7.43;;;;;;;;;;5041328;28;20080;-67
2023/12/04 10:23:38;;;;;;;7.82;7.10;;;;;;;;;;5038090;28;20110;-68
2023/12/04 10:26:07;;;;;;;7.50;6.80;;;;;;;;;;5039851;28;20514;-66
2023/12/04 10:28:38;;;;;;;8.50;7.70;;;;;;;;;;5034480;28;20102;-68
2023/12/04 10:31:07;;;;;;;9.63;8.63;;;;;;;;;;5039419;28;20049;-66
2023/12/04 10:33:36;;;;;;;8.38;7.60;;;;;;;;;;5046721;28;20049;-64
2023/12/04 10:36:05;;;;;;;6.78;6.13;;;;;;;;;;5046544;28;20123;-64
2023/12/04 10:38:34;;;;;;;7.72;6.97;;;;;;;;;;5045328;28;20072;-64
2023/12/04 10:41:13;;;;;;;6.30;5.80;;;;;;;;;;5044491;28;20048;-73
2023/12/04 10:43:49;;;;;;;7.07;6.38;;;;;;;;;;5046987;28;20053;-66
2023/12/04 10:46:29;;;;;;;8.05;7.25;;;;;;;;;;5043294;28;20067;-64
2023/12/04 10:48:58;;;;;;;6.05;5.50;;;;;;;;;;5045079;28;20115;-67
2023/12/04 10:51:28;;;;;;;8.43;7.63;;;;;;;;;;5043733;28;20140;-64
2023/12/04 10:53:57;;;;;;;6.47;6.00;;;;;;;;;;5042435;28;20057;-66
2023/12/04 10:56:28;;;;;;;5.78;5.28;;;;;;;;;;5044456;28;20044;-68
2023/12/04 10:58:59;;;;;;;6.20;5.60;;;;;;;;;;5038489;28;20061;-64
2023/12/04 11:01:28;;;;;;;6.38;5.75;;;;;;;;;;5043837;28;20056;-66
2023/12/04 11:03:58;;;;;;;6.18;5.68;;;;;;;;;;5042931;28;20046;-66
2023/12/04 11:06:28;;;;;;;9.73;7.90;;;;;;;;;;5043256;28;20044;-69
2023/12/04 11:08:58;;;;;;;9.60;8.63;;;;;;;;;;5044961;28;20124;-64
2023/12/04 11:11:29;;;;;;;9.35;7.72;;;;;;;;;;5047317;28;20052;-64
2023/12/04 11:14:02;;;;;;;7.82;6.95;;;;;;;;;;5040548;28;20818;-65
2023/12/04 11:16:36;;;;;;;6.53;6.03;;;;;;;;;;5033951;28;20055;-66
2023/12/04 11:19:08;;;;;;;7.18;6.50;;;;;;;;;;5046674;28;20486;-68
2023/12/04 11:21:38;;;;;;;8.35;6.38;;;;;;;;;;5042282;28;20045;-63
2023/12/04 11:24:07;;;;;;;7.20;6.32;;;;;;;;;;5043169;28;20052;-66
2023/12/04 11:26:35;;;;;;;6.63;6.20;;;;;;;;;;5045215;28;20133;-65
2023/12/04 11:29:06;;;;;;;6.68;6.10;;;;;;;;;;5047481;28;20080;-67
2023/12/04 11:31:34;;;;;;;7.30;6.65;;;;;;;;;;5043370;28;20057;-67
2023/12/04 11:34:03;;;;;;;6.45;5.95;;;;;;;;;;5037474;28;20053;-65
2023/12/04 11:36:32;;;;;;;6.82;6.28;;;;;;;;;;5042683;28;20442;-67
2023/12/04 11:39:02;;;;;;;6.85;6.05;;;;;;;;;;5045758;28;20080;-66
2023/12/04 11:41:32;;;;;;;7.03;6.40;;;;;;;;;;5048350;28;20348;-62
2023/12/04 11:44:00;;;;;;;7.93;7.15;;;;;;;;;;5052331;28;20056;-64
2023/12/04 11:46:31;;;;;;;6.63;5.95;;;;;;;;;;5042922;28;20119;-66
2023/12/04 11:49:28;;;;;;;8.25;6.85;;;;;;;;;;5045894;28;20057;-64
2023/12/04 11:51:58;;;;;;;8.60;7.63;;;;;;;;;;5045608;28;20107;-62
2023/12/04 11:54:28;;;;;;;6.47;5.90;;;;;;;;;;5051427;28;20040;-62
2023/12/04 11:57:00;;;;;;;6.85;6.15;;;;;;;;;;5047353;28;20139;-63
2023/12/04 11:59:29;;;;;;;7.20;6.50;;;;;;;;;;5045445;28;20141;-64
2023/12/04 12:01:59;;;;;;;6.75;6.15;;;;;;;;;;5048472;28;20519;-62
2023/12/04 12:04:28;;;;;;;8.23;7.50;;;;;;;;;;5038678;28;20122;-64
2023/12/04 12:07:02;;;;;;;7.13;6.53;;;;;;;;;;5045099;28;20056;-63
2023/12/04 12:09:31;;;;;;;7.72;7.03;;;;;;;;;;5041245;28;21005;-62
2023/12/04 12:12:00;;;;;;;6.57;6.07;;;;;;;;;;5044064;28;20052;-65
2023/12/04 12:14:29;;;;;;;10.82;6.65;;;;;;;;;;5045639;28;20050;-63
2023/12/04 12:17:00;;;;;;;8.40;7.30;;;;;;;;;;5046881;28;20049;-63
2023/12/04 12:19:29;;;;;;;8.13;7.28;;;;;;;;;;5047233;28;20049;-64
2023/12/04 12:21:58;;;;;;;6.68;6.07;;;;;;;;;;5048806;28;20498;-63
2023/12/04 12:24:26;;;;;;;6.75;6.25;;;;;;;;;;5044099;28;20513;-60
2023/12/04 12:26:55;;;;;;;8.77;7.05;;;;;;;;;;5048883;28;20523;-61
2023/12/04 12:29:24;;;;;;;8.63;7.07;;;;;;;;;;5045056;28;20049;-61
2023/12/04 12:31:53;;;;;;;8.13;6.70;;;;;;;;;;5050962;28;20057;-60
2023/12/04 12:34:23;;;;;;;8.73;6.85;;;;;;;;;;5043262;28;20036;-59
2023/12/04 12:36:51;;;;;;;8.13;7.32;;;;;;;;;;5049600;28;20410;-61
2023/12/04 12:39:20;;;;;;;8.68;7.78;;;;;;;;;;5044477;28;20064;-59
2023/12/04 12:41:49;;;;;;;8.07;7.28;;;;;;;;;;5038512;28;20168;-60
2023/12/04 12:44:18;;;;;;;7.50;6.80;;;;;;;;;;5044320;28;20053;-62
2023/12/04 12:46:49;;;;;;;8.73;7.82;;;;;;;;;;5044263;28;20453;-59
2023/12/04 12:49:20;;;;;;;7.63;6.88;;;;;;;;;;5045083;28;20394;-59
2023/12/04 12:52:08;;;;;;;7.00;6.35;;;;;;;;;;5043216;28;20053;-59
2023/12/04 12:54:38;;;;;;;7.30;6.70;;;;;;;;;;5045702;28;20388;-60
2023/12/04 12:57:07;;;;;;;7.97;7.28;;;;;;;;;;5039330;28;20159;-60
2023/12/04 12:59:36;;;;;;;8.45;7.63;;;;;;;;;;5044290;28;20123;-64
2023/12/04 13:02:06;;;;;;;9.07;8.25;;;;;;;;;;5046878;28;20056;-61
2023/12/04 13:04:38;;;;;;;10.13;7.40;;;;;;;;;;5046061;28;20068;-60
2023/12/04 13:07:08;;;;;;;8.05;7.28;;;;;;;;;;5046519;28;20488;-58
2023/12/04 13:09:38;;;;;;;7.90;7.22;;;;;;;;;;5048414;28;20136;-60
2023/12/04 13:12:07;;;;;;;8.45;7.68;;;;;;;;;;5048540;28;20119;-59
2023/12/04 13:14:36;;;;;;;8.70;7.10;;;;;;;;;;5039377;28;20412;-59
2023/12/04 13:17:06;;;;;;;8.82;8.02;;;;;;;;;;5044457;28;20103;-59
2023/12/04 13:19:36;;;;;;;6.97;6.43;;;;;;;;;;5040963;28;20052;-62
2023/12/04 13:22:05;;;;;;;8.93;8.02;;;;;;;;;;5046472;28;20052;-60
2023/12/04 13:24:35;;;;;;;8.65;6.93;;;;;;;;;;5046312;28;20049;-61
2023/12/04 13:27:04;;;;;;;8.93;8.02;;;;;;;;;;5042244;28;20053;-59
2023/12/04 13:29:32;;;;;;;8.35;7.28;;;;;;;;;;5046486;28;20091;-60
2023/12/04 13:32:01;;;;;;;8.85;7.95;;;;;;;;;;5045420;28;20049;-61
2023/12/04 13:34:30;;;;;;;9.38;7.68;;;;;;;;;;5045237;28;20284;-64
2023/12/04 13:36:58;;;;;;;8.18;7.38;;;;;;;;;;5029307;28;20067;-60
2023/12/04 13:39:47;;;;;;;8.80;7.80;;;;;;;;;;5046932;28;20045;-61
2023/12/04 13:45:12;;;;;;;7.13;6.45;;;;;;;;;;5031281;28;20048;-59
2023/12/04 13:47:41;;;;;;;7.72;7.03;;;;;;;;;;5045230;28;20049;-60
2023/12/04 13:50:10;;;;;;;11.00;9.13;;;;;;;;;;5040786;28;20055;-59
2023/12/04 13:52:38;;;;;;;9.05;7.18;;;;;;;;;;5045688;28;20047;-59
2023/12/04 13:55:14;;;;;;;7.85;7.07;;;;;;;;;;5045722;28;20041;-59
2023/12/04 13:58:00;;;;;;;7.22;6.53;;;;;;;;;;5031737;28;20096;-62
2023/12/04 14:00:29;;;;;;;7.82;6.93;;;;;;;;;;5035758;28;20131;-59
2023/12/04 14:03:03;;;;;;;7.93;7.20;;;;;;;;;;5042485;28;20567;-58
2023/12/04 14:05:33;;;;;;;8.27;7.50;;;;;;;;;;5041862;28;20048;-59
2023/12/04 14:08:04;;;;;;;8.05;7.25;;;;;;;;;;5034368;28;20595;-58
2023/12/04 14:10:33;;;;;;;9.02;7.00;;;;;;;;;;5043526;28;20052;-58
2023/12/04 14:13:04;;;;;;;7.65;6.95;;;;;;;;;;5048052;28;20095;-59
2023/12/04 14:15:32;;;;;;;8.15;7.32;;;;;;;;;;5046113;28;20446;-59
2023/12/04 14:18:01;;;;;;;7.78;6.97;;;;;;;;;;5040431;28;20477;-60
2023/12/04 14:20:30;;;;;;;7.85;7.15;;;;;;;;;;5042331;28;20079;-61
2023/12/04 14:22:58;;;;;;;7.72;7.00;;;;;;;;;;5043281;28;20106;-59
2023/12/04 14:25:27;;;;;;;8.18;7.40;;;;;;;;;;5044321;28;20072;-61
2023/12/04 14:27:55;;;;;;;8.70;7.82;;;;;;;;;;5042908;28;20053;-61
2023/12/04 14:30:27;;;;;;;8.13;7.05;;;;;;;;;;5044683;28;20375;-59
2023/12/04 14:32:55;;;;;;;9.18;7.80;;;;;;;;;;5034849;28;20495;-59
2023/12/04 14:35:24;;;;;;;8.65;7.80;;;;;;;;;;5044726;28;20111;-58
2023/12/04 14:37:52;;;;;;;7.38;6.78;;;;;;;;;;5045751;28;20049;-60
2023/12/04 14:40:22;;;;;;;15.23;7.60;;;;;;;;;;5032652;28;20057;-59
2023/12/04 14:42:51;;;;;;;8.20;7.40;;;;;;;;;;5047279;28;20143;-59
2023/12/04 14:45:20;;;;;;;8.73;7.63;;;;;;;;;;5046790;28;20456;-59
2023/12/04 14:47:52;;;;;;;7.85;7.15;;;;;;;;;;5047750;28;20056;-61
2023/12/04 14:50:21;;;;;;;9.23;8.30;;;;;;;;;;5047195;28;20383;-59
2023/12/04 14:52:51;;;;;;;9.10;7.60;;;;;;;;;;5047222;28;20053;-60
2023/12/04 14:59:00;;;;;;;8.98;8.07;;;;;;;;;;5043574;28;20087;-60
2023/12/04 15:04:48;;;;;;;8.80;7.88;;;;;;;;;;5016696;28;20056;-60
2023/12/04 15:13:38;;;;;;;8.88;8.02;;;;;;;;;;5024939;28;20160;-59